createdAt,value
2022-10-19T00:02:17.538Z,10.67
2022-10-19T00:04:44.529Z,10.60
2022-10-19T00:07:11.017Z,10.53
2022-10-19T00:09:37.520Z,10.58
2022-10-19T00:12:04.116Z,10.50
2022-10-19T00:14:30.570Z,10.48
2022-10-19T00:16:58.095Z,10.44
2022-10-19T00:19:26.875Z,10.41
2022-10-19T00:21:53.695Z,10.44
2022-10-19T00:24:20.275Z,10.42
2022-10-19T00:26:46.804Z,10.43
2022-10-19T00:29:14.837Z,10.47
2022-10-19T00:31:41.760Z,10.40
2022-10-19T00:34:08.300Z,10.43
2022-10-19T00:36:37.981Z,10.40
2022-10-19T00:39:06.355Z,10.49
2022-10-19T00:41:35.029Z,10.52
2022-10-19T00:44:08.226Z,10.54
2022-10-19T00:46:37.716Z,10.57
2022-10-19T00:49:21.733Z,10.57
2022-10-19T00:51:52.472Z,10.52
2022-10-19T00:54:19.232Z,10.57
2022-10-19T00:56:48.692Z,10.59
2022-10-19T00:59:18.766Z,10.51
2022-10-19T01:01:46.097Z,10.59
2022-10-19T01:04:13.966Z,10.59
2022-10-19T01:06:41.344Z,10.51
2022-10-19T01:09:08.616Z,10.56
2022-10-19T01:11:57.554Z,10.61
2022-10-19T01:14:36.178Z,10.59
2022-10-19T01:17:08.733Z,10.54
2022-10-19T01:20:05.928Z,10.57
2022-10-19T01:23:00.269Z,10.56
2022-10-19T01:25:49.648Z,10.49
2022-10-19T01:28:50.153Z,10.47
2022-10-19T01:31:58.147Z,10.47
2022-10-19T01:34:38.713Z,10.34
2022-10-19T01:37:19.012Z,10.33
2022-10-19T01:40:09.633Z,10.35
2022-10-19T01:42:59.021Z,10.21
2022-10-19T01:45:28.516Z,10.23
2022-10-19T01:48:04.458Z,10.24
2022-10-19T01:50:40.934Z,10.27
2022-10-19T01:53:10.766Z,10.19
2022-10-19T01:55:42.728Z,10.11
2022-10-19T01:58:13.426Z,10.11
2022-10-19T02:00:43.837Z,10.05
2022-10-19T02:03:12.806Z,10.05
2022-10-19T02:05:40.583Z,9.99
2022-10-19T02:08:17.143Z,9.95
2022-10-19T02:10:45.167Z,9.84
2022-10-19T02:13:14.663Z,9.85
2022-10-19T02:15:44.560Z,9.83
2022-10-19T02:18:15.404Z,9.73
2022-10-19T02:20:41.903Z,9.74
2022-10-19T02:23:08.956Z,9.70
2022-10-19T02:25:36.338Z,9.66
2022-10-19T02:28:04.587Z,9.64
2022-10-19T02:30:31.195Z,9.62
2022-10-19T02:32:57.693Z,9.59
2022-10-19T02:35:24.290Z,9.57
2022-10-19T02:37:50.806Z,9.58
2022-10-19T02:40:17.485Z,9.51
2022-10-19T02:42:57.292Z,9.45
2022-10-19T02:45:28.151Z,9.47
2022-10-19T02:48:23.195Z,9.57
2022-10-19T02:50:49.731Z,9.40
2022-10-19T02:53:16.563Z,9.49
2022-10-19T02:55:43.350Z,9.41
2022-10-19T02:58:09.911Z,9.40
2022-10-19T03:00:36.499Z,9.42
2022-10-19T03:03:03.110Z,9.36
2022-10-19T03:05:29.868Z,9.39
2022-10-19T03:07:56.362Z,9.40
2022-10-19T03:10:23.073Z,9.40
2022-10-19T03:12:49.540Z,9.43
2022-10-19T03:15:17.856Z,9.37
2022-10-19T03:17:44.326Z,9.26
2022-10-19T03:20:11.726Z,9.32
2022-10-19T03:22:38.181Z,9.35
2022-10-19T03:25:05.051Z,9.29
2022-10-19T03:27:31.888Z,9.25
2022-10-19T03:29:58.580Z,9.29
2022-10-19T03:32:25.081Z,9.30
2022-10-19T03:34:51.519Z,9.26
2022-10-19T03:37:17.988Z,9.21
2022-10-19T03:39:44.451Z,9.25
2022-10-19T03:42:10.918Z,9.21
2022-10-19T03:44:37.366Z,9.17
2022-10-19T03:47:03.844Z,9.16
2022-10-19T03:49:30.309Z,9.16
2022-10-19T03:51:56.772Z,9.11
2022-10-19T03:54:26.516Z,9.05
2022-10-19T03:56:54.011Z,9.03
2022-10-19T03:59:20.567Z,9.04
2022-10-19T04:01:47.498Z,8.93
2022-10-19T04:04:16.810Z,8.99
2022-10-19T04:06:45.864Z,8.98
2022-10-19T04:09:14.572Z,8.95
2022-10-19T04:11:41.603Z,8.93
2022-10-19T04:16:35.960Z,8.82
2022-10-19T04:19:03.486Z,8.88
2022-10-19T04:21:32.845Z,8.82
2022-10-19T04:24:08.241Z,8.79
2022-10-19T04:26:39.762Z,8.78
2022-10-19T04:29:06.409Z,8.78
2022-10-19T04:31:32.884Z,8.83
2022-10-19T04:33:59.491Z,8.81
2022-10-19T04:36:26.148Z,8.73
2022-10-19T04:38:52.616Z,8.83
2022-10-19T04:41:20.923Z,8.77
2022-10-19T04:43:48.563Z,8.78
2022-10-19T04:46:19.884Z,8.82
2022-10-19T04:48:47.769Z,8.70
2022-10-19T04:51:15.049Z,8.75
2022-10-19T04:53:42.744Z,8.76
2022-10-19T04:56:15.467Z,8.69
2022-10-19T04:58:42.421Z,8.70
2022-10-19T05:01:14.985Z,8.71
2022-10-19T05:03:41.496Z,8.72
2022-10-19T05:06:08.955Z,8.56
2022-10-19T05:08:36.919Z,8.72
2022-10-19T05:11:06.203Z,8.64
2022-10-19T05:13:33.447Z,8.54
2022-10-19T05:16:01.714Z,8.58
2022-10-19T05:18:28.756Z,8.56
2022-10-19T05:21:02.662Z,8.59
2022-10-19T05:23:29.571Z,8.59
2022-10-19T05:26:13.425Z,8.61
2022-10-19T05:28:40.344Z,8.58
2022-10-19T05:31:11.945Z,8.48
2022-10-19T05:33:39.539Z,8.37
2022-10-19T05:36:14.079Z,8.52
2022-10-19T05:38:40.911Z,8.48
2022-10-19T05:41:07.596Z,8.47
2022-10-19T05:43:34.085Z,8.46
2022-10-19T05:46:08.544Z,8.45
2022-10-19T05:48:35.556Z,8.38
2022-10-19T05:51:05.235Z,8.37
2022-10-19T05:53:32.915Z,8.38
2022-10-19T05:55:59.438Z,8.34
2022-10-19T05:58:25.978Z,8.37
2022-10-19T06:00:58.368Z,8.38
2022-10-19T06:03:26.151Z,8.40
2022-10-19T06:05:53.497Z,8.35
2022-10-19T06:08:21.424Z,8.26
2022-10-19T06:10:49.065Z,8.27
2022-10-19T06:13:17.238Z,8.24
2022-10-19T06:15:44.037Z,8.23
2022-10-19T06:18:12.108Z,8.20
2022-10-19T06:20:40.935Z,8.22
2022-10-19T06:23:08.474Z,8.20
2022-10-19T06:25:36.017Z,8.19
2022-10-19T06:28:03.473Z,8.20
2022-10-19T06:30:29.950Z,8.13
2022-10-19T06:32:56.591Z,8.08
2022-10-19T06:35:23.113Z,8.14
2022-10-19T06:37:49.568Z,8.07
2022-10-19T06:40:16.128Z,8.11
2022-10-19T06:42:42.591Z,8.15
2022-10-19T06:45:10.328Z,8.17
2022-10-19T06:47:37.182Z,8.19
2022-10-19T06:50:05.988Z,8.17
2022-10-19T06:52:34.045Z,8.12
2022-10-19T06:55:01.270Z,8.17
2022-10-19T06:57:28.564Z,8.21
2022-10-19T06:59:55.585Z,8.13
2022-10-19T07:02:22.063Z,8.16
2022-10-19T07:04:48.656Z,8.18
2022-10-19T07:07:15.130Z,8.18
2022-10-19T07:09:41.578Z,8.19
2022-10-19T07:12:10.656Z,8.15
2022-10-19T07:14:39.446Z,8.20
2022-10-19T07:17:10.987Z,8.11
2022-10-19T07:19:37.782Z,8.22
2022-10-19T07:22:04.684Z,8.22
2022-10-19T07:24:31.143Z,8.24
2022-10-19T07:26:57.618Z,8.23
2022-10-19T07:29:24.088Z,8.29
2022-10-19T07:31:50.559Z,8.31
2022-10-19T07:34:17.061Z,8.37
2022-10-19T07:36:48.030Z,8.39
2022-10-19T07:39:16.889Z,8.43
2022-10-19T07:41:43.893Z,8.44
2022-10-19T07:44:14.785Z,8.51
2022-10-19T07:46:42.193Z,8.62
2022-10-19T07:49:12.870Z,8.57
2022-10-19T07:51:40.542Z,8.64
2022-10-19T07:54:07.047Z,8.66
2022-10-19T07:56:34.811Z,8.69
2022-10-19T07:59:01.701Z,8.73
2022-10-19T08:01:31.112Z,8.74
2022-10-19T08:04:48.983Z,8.79
2022-10-19T08:06:45.445Z,8.80
2022-10-19T08:09:27.646Z,8.87
2022-10-19T08:11:58.351Z,8.93
2022-10-19T08:14:24.857Z,8.98
2022-10-19T08:16:51.363Z,9.03
2022-10-19T08:19:18.082Z,9.03
2022-10-19T08:21:46.624Z,9.06
2022-10-19T08:24:15.354Z,9.13
2022-10-19T08:26:42.088Z,9.22
2022-10-19T08:29:17.766Z,9.23
2022-10-19T08:31:46.089Z,9.28
2022-10-19T08:34:14.019Z,9.31
2022-10-19T08:39:13.128Z,9.47
2022-10-19T08:42:00.711Z,9.48
2022-10-19T08:44:48.942Z,9.60
2022-10-19T08:47:47.005Z,9.60
2022-10-19T08:50:26.812Z,9.67
2022-10-19T08:53:03.285Z,9.72
2022-10-19T08:55:41.320Z,9.74
2022-10-19T08:58:19.709Z,9.78
2022-10-19T09:01:00.199Z,9.84
2022-10-19T09:04:02.302Z,9.87
2022-10-19T09:06:41.728Z,9.96
2022-10-19T09:09:13.184Z,9.98
2022-10-19T09:11:44.271Z,10.05
2022-10-19T09:14:28.031Z,10.13
2022-10-19T09:17:01.202Z,10.20
2022-10-19T09:19:30.806Z,10.26
2022-10-19T09:22:07.768Z,10.30
2022-10-19T09:24:43.797Z,10.28
2022-10-19T09:27:24.676Z,10.33
2022-10-19T09:29:55.597Z,10.37
2022-10-19T09:32:32.488Z,10.45
2022-10-19T09:35:17.276Z,10.54
2022-10-19T09:37:47.271Z,10.57
2022-10-19T09:40:22.569Z,10.63
2022-10-19T09:42:56.804Z,10.68
2022-10-19T09:45:34.406Z,10.69
2022-10-19T09:48:07.119Z,10.70
2022-10-19T09:50:35.303Z,10.78
2022-10-19T09:53:05.705Z,10.81
2022-10-19T09:55:42.603Z,10.92
2022-10-19T09:58:15.262Z,10.99
2022-10-19T10:00:47.194Z,10.97
2022-10-19T10:03:22.837Z,11.10
2022-10-19T10:05:49.775Z,11.14
2022-10-19T10:08:27.852Z,11.20
2022-10-19T10:10:54.263Z,11.22
2022-10-19T10:13:24.138Z,11.29
2022-10-19T10:15:56.620Z,11.31
2022-10-19T10:18:25.064Z,11.44
2022-10-19T10:20:59.443Z,11.50
2022-10-19T10:23:30.928Z,11.48
2022-10-19T10:25:59.532Z,11.58
2022-10-19T10:28:28.415Z,11.62
2022-10-19T10:31:07.241Z,11.69
2022-10-19T10:33:44.694Z,11.72
2022-10-19T10:36:13.019Z,11.85
2022-10-19T10:38:47.338Z,11.93
2022-10-19T10:41:17.618Z,11.92
2022-10-19T10:43:59.644Z,11.99
2022-10-19T10:46:38.034Z,12.05
2022-10-19T10:49:07.124Z,12.10
2022-10-19T10:51:39.827Z,12.13
2022-10-19T10:54:09.042Z,12.17
2022-10-19T10:56:35.533Z,12.23
2022-10-19T10:59:10.060Z,12.26
2022-10-19T11:02:02.712Z,12.28
2022-10-19T11:04:36.670Z,12.35
2022-10-19T11:07:16.413Z,12.35
2022-10-19T11:09:48.044Z,12.39
2022-10-19T11:12:18.012Z,12.41
2022-10-19T11:15:03.950Z,12.51
2022-10-19T11:17:36.640Z,12.56
2022-10-19T11:20:06.141Z,12.66
2022-10-19T11:22:47.171Z,12.70
2022-10-19T11:25:36.477Z,12.80
2022-10-19T11:28:33.939Z,12.88
2022-10-19T11:31:44.357Z,12.98
2022-10-19T11:34:16.902Z,13.02
2022-10-19T11:36:54.007Z,13.05
2022-10-19T11:39:41.926Z,13.18
2022-10-19T11:42:29.911Z,13.24
2022-10-19T11:45:15.619Z,13.22
2022-10-19T11:48:12.801Z,13.34
2022-10-19T11:50:54.382Z,13.49
2022-10-19T11:53:50.544Z,13.50
2022-10-19T11:56:44.656Z,13.53
2022-10-19T11:59:33.125Z,13.58
2022-10-19T12:02:48.051Z,13.66
2022-10-19T12:05:26.321Z,13.78
2022-10-19T12:08:01.496Z,13.87
2022-10-19T12:10:43.058Z,13.91
2022-10-19T12:13:15.323Z,13.91
2022-10-19T12:15:48.561Z,14.03
2022-10-19T12:18:32.209Z,14.03
2022-10-19T12:21:02.773Z,14.05
2022-10-19T12:23:34.037Z,14.13
2022-10-19T12:26:04.501Z,14.17
2022-10-19T12:28:35.607Z,14.17
2022-10-19T12:31:04.088Z,14.25
2022-10-19T12:33:36.283Z,14.29
2022-10-19T12:36:30.032Z,14.27
2022-10-19T12:39:08.162Z,14.27
2022-10-19T12:41:39.038Z,14.39
2022-10-19T12:47:01.405Z,14.47
2022-10-19T12:49:30.853Z,14.61
2022-10-19T12:51:59.606Z,14.59
2022-10-19T12:54:28.417Z,14.59
2022-10-19T12:56:57.930Z,14.62
2022-10-19T12:59:28.919Z,14.69
2022-10-19T13:01:57.004Z,14.71
2022-10-19T13:04:26.793Z,14.70
2022-10-19T13:07:10.427Z,14.72
2022-10-19T13:09:42.544Z,14.68
2022-10-19T13:12:19.511Z,14.81
2022-10-19T13:15:00.464Z,14.79
2022-10-19T13:17:50.565Z,14.87
2022-10-19T13:20:17.048Z,14.83
2022-10-19T13:22:46.322Z,14.82
2022-10-19T13:25:23.762Z,14.91
2022-10-19T13:27:52.068Z,14.86
2022-10-19T13:30:39.646Z,14.94
2022-10-19T13:33:24.647Z,14.93
2022-10-19T13:36:00.239Z,14.85
2022-10-19T13:38:31.915Z,14.78
2022-10-19T13:41:25.796Z,14.85
2022-10-19T13:44:20.925Z,14.83
2022-10-19T13:47:20.413Z,14.82
2022-10-19T13:49:52.483Z,14.81
2022-10-19T13:52:46.951Z,14.82
2022-10-19T13:55:27.989Z,14.88
2022-10-19T13:58:22.599Z,14.84
2022-10-19T14:01:21.063Z,14.93
2022-10-19T14:03:47.528Z,14.93
2022-10-19T14:06:38.707Z,14.98
2022-10-19T14:09:37.173Z,14.95
2022-10-19T14:12:09.106Z,14.81
2022-10-19T14:14:43.625Z,14.87
2022-10-19T14:20:01.674Z,14.90
2022-10-19T14:22:38.160Z,15.01
2022-10-19T14:25:06.592Z,15.17
2022-10-19T14:27:33.793Z,15.26
2022-10-19T14:30:00.716Z,15.20
2022-10-19T14:32:29.409Z,15.27
2022-10-19T14:37:37.443Z,15.29
2022-10-19T14:40:26.628Z,15.32
2022-10-19T14:42:56.867Z,15.40
2022-10-19T14:45:29.198Z,15.41
2022-10-19T14:48:05.093Z,15.40
2022-10-19T14:50:44.912Z,15.37
2022-10-19T14:53:20.459Z,15.26
2022-10-19T14:55:49.567Z,15.22
2022-10-19T14:58:20.453Z,15.17
2022-10-19T15:00:49.634Z,15.27
2022-10-19T15:03:26.777Z,15.19
2022-10-19T15:06:01.238Z,15.16
2022-10-19T15:08:45.104Z,15.22
2022-10-19T15:11:26.395Z,15.14
2022-10-19T15:14:03.515Z,15.12
2022-10-19T15:16:34.087Z,15.01
2022-10-19T15:19:06.427Z,15.08
2022-10-19T15:21:33.483Z,14.97
2022-10-19T15:24:24.901Z,15.00
2022-10-19T15:27:06.529Z,14.85
2022-10-19T15:29:35.120Z,14.81
2022-10-19T15:32:16.147Z,14.85
2022-10-19T15:34:44.295Z,14.70
2022-10-19T15:37:18.033Z,14.74
2022-10-19T15:39:45.723Z,14.72
2022-10-19T15:42:44.069Z,14.65
2022-10-19T15:45:33.324Z,14.63
2022-10-19T15:48:14.772Z,14.56
2022-10-19T15:50:47.786Z,14.49
2022-10-19T15:53:15.053Z,14.47
2022-10-19T15:55:41.579Z,14.31
2022-10-19T15:58:11.224Z,14.29
2022-10-19T16:00:38.895Z,14.30
2022-10-19T16:03:05.632Z,14.28
2022-10-19T16:05:32.879Z,14.21
2022-10-19T16:07:59.336Z,14.24
2022-10-19T16:10:27.105Z,14.18
2022-10-19T16:12:53.773Z,14.25
2022-10-19T16:15:22.916Z,14.07
2022-10-19T16:17:55.439Z,13.99
2022-10-19T16:20:23.116Z,14.00
2022-10-19T16:22:50.408Z,14.03
2022-10-19T16:25:17.330Z,14.01
2022-10-19T16:27:44.114Z,14.03
2022-10-19T16:30:11.995Z,13.98
2022-10-19T16:32:39.868Z,13.96
2022-10-19T16:35:08.330Z,13.85
2022-10-19T16:37:35.288Z,13.92
2022-10-19T16:40:01.980Z,13.87
2022-10-19T16:42:30.494Z,13.82
2022-10-19T16:44:57.223Z,13.85
2022-10-19T16:47:23.694Z,13.79
2022-10-19T16:49:57.829Z,13.79
2022-10-19T16:52:24.389Z,13.73
2022-10-19T16:54:50.902Z,13.79
2022-10-19T16:57:17.379Z,13.67
2022-10-19T16:59:43.902Z,13.63
2022-10-19T17:02:11.420Z,13.58
2022-10-19T17:04:37.935Z,13.55
2022-10-19T17:07:04.488Z,13.49
2022-10-19T17:09:41.210Z,13.52
2022-10-19T17:12:09.212Z,13.56
2022-10-19T17:14:36.740Z,13.43
2022-10-19T17:17:03.290Z,13.53
2022-10-19T17:19:29.978Z,13.45
2022-10-19T17:21:57.652Z,13.41
2022-10-19T17:24:24.344Z,13.36
2022-10-19T17:26:52.047Z,13.32
2022-10-19T17:29:20.076Z,13.28
2022-10-19T17:31:46.864Z,13.24
2022-10-19T17:34:13.839Z,13.23
2022-10-19T17:36:44.263Z,13.25
2022-10-19T17:39:19.708Z,13.31
2022-10-19T17:41:47.950Z,13.13
2022-10-19T17:44:15.123Z,13.16
2022-10-19T17:46:41.949Z,13.23
2022-10-19T17:49:08.923Z,13.16
2022-10-19T17:51:36.216Z,13.14
2022-10-19T17:54:05.632Z,13.13
2022-10-19T17:56:32.195Z,13.20
2022-10-19T17:58:59.515Z,13.02
2022-10-19T18:01:26.868Z,13.14
2022-10-19T18:03:53.675Z,13.04
2022-10-19T18:06:26.206Z,13.03
2022-10-19T18:08:55.700Z,12.95
2022-10-19T18:11:24.688Z,12.84
2022-10-19T18:13:52.239Z,12.98
2022-10-19T18:16:21.570Z,12.87
2022-10-19T18:18:50.060Z,12.90
2022-10-19T18:21:22.032Z,13.04
2022-10-19T18:23:48.753Z,12.94
2022-10-19T18:26:21.948Z,12.86
2022-10-19T18:28:50.045Z,12.83
2022-10-19T18:31:21.893Z,12.80
2022-10-19T18:33:49.226Z,13.10
2022-10-19T18:36:15.866Z,12.76
2022-10-19T18:38:42.361Z,12.75
2022-10-19T18:43:43.581Z,12.72
2022-10-19T18:46:10.621Z,12.59
2022-10-19T18:48:38.151Z,12.58
2022-10-19T18:51:09.133Z,12.61
2022-10-19T18:53:35.750Z,12.51
2022-10-19T18:56:05.722Z,12.60
2022-10-19T18:58:33.651Z,12.50
2022-10-19T19:01:02.769Z,12.48
2022-10-19T19:03:29.568Z,12.52
2022-10-19T19:05:59.788Z,12.45
2022-10-19T19:08:26.354Z,12.45
2022-10-19T19:10:52.890Z,12.46
2022-10-19T19:13:19.398Z,12.39
2022-10-19T19:15:45.856Z,12.46
2022-10-19T19:18:12.354Z,12.38
2022-10-19T19:20:41.873Z,12.36
2022-10-19T19:23:08.337Z,12.36
2022-10-19T19:25:34.897Z,12.35
2022-10-19T19:28:01.351Z,12.45
2022-10-19T19:30:27.804Z,12.30
2022-10-19T19:32:54.256Z,12.37
2022-10-19T19:35:20.699Z,12.26
2022-10-19T19:37:47.164Z,12.22
2022-10-19T19:40:13.653Z,12.23
2022-10-19T19:42:40.188Z,12.24
2022-10-19T19:45:07.308Z,12.17
2022-10-19T19:47:34.121Z,12.18
2022-10-19T19:50:00.851Z,12.08
2022-10-19T19:52:27.768Z,12.09
2022-10-19T19:54:54.295Z,12.10
2022-10-19T19:57:20.939Z,12.07
2022-10-19T19:59:47.451Z,12.00
2022-10-19T20:02:16.278Z,11.97
2022-10-19T20:04:42.739Z,11.95
2022-10-19T20:07:09.223Z,11.85
2022-10-19T20:09:35.720Z,11.79
2022-10-19T20:12:02.316Z,11.80
2022-10-19T20:14:28.883Z,11.75
2022-10-19T20:16:55.368Z,11.80
2022-10-19T20:19:22.175Z,11.71
2022-10-19T20:21:48.699Z,11.71
2022-10-19T20:24:15.277Z,11.70
2022-10-19T20:26:41.728Z,11.68
2022-10-19T20:29:08.354Z,11.65
2022-10-19T20:31:39.485Z,11.72
2022-10-19T20:34:10.650Z,11.93
2022-10-19T20:36:37.124Z,11.68
2022-10-19T20:39:03.722Z,11.70
2022-10-19T20:41:30.177Z,11.69
2022-10-19T20:43:57.007Z,11.61
2022-10-19T20:46:27.045Z,11.66
2022-10-19T20:48:55.522Z,11.64
2022-10-19T20:51:29.110Z,11.57
2022-10-19T20:54:00.463Z,11.60
2022-10-19T20:56:29.809Z,11.48
2022-10-19T20:59:07.520Z,11.45
2022-10-19T21:01:36.416Z,11.38
2022-10-19T21:04:04.784Z,11.45
2022-10-19T21:06:34.617Z,11.38
2022-10-19T21:09:01.138Z,11.38
2022-10-19T21:11:30.356Z,11.54
2022-10-19T21:14:03.108Z,11.45
2022-10-19T21:16:33.399Z,11.56
2022-10-19T21:19:01.838Z,11.44
2022-10-19T21:21:39.784Z,11.39
2022-10-19T21:24:17.957Z,11.41
2022-10-19T21:26:44.682Z,11.39
2022-10-19T21:29:12.609Z,11.29
2022-10-19T21:31:44.067Z,11.25
2022-10-19T21:34:16.304Z,11.33
2022-10-19T21:36:42.868Z,11.23
2022-10-19T21:39:09.709Z,11.36
2022-10-19T21:41:36.507Z,11.30
2022-10-19T21:44:03.022Z,11.29
2022-10-19T21:46:29.541Z,11.34
2022-10-19T21:48:56.918Z,11.27
2022-10-19T21:51:50.585Z,11.26
2022-10-19T21:54:19.528Z,11.19
2022-10-19T21:56:46.776Z,11.14
2022-10-19T21:59:13.564Z,11.17
2022-10-19T22:01:41.622Z,11.17
2022-10-19T22:04:12.130Z,11.20
2022-10-19T22:06:39.425Z,11.09
2022-10-19T22:09:09.010Z,11.17
2022-10-19T22:11:35.735Z,11.03
2022-10-19T22:14:03.477Z,10.93
2022-10-19T22:16:30.815Z,11.08
2022-10-19T22:18:57.336Z,11.01
2022-10-19T22:21:26.506Z,10.94
2022-10-19T22:23:55.662Z,11.00
2022-10-19T22:26:28.559Z,11.02
2022-10-19T22:28:57.067Z,10.93
2022-10-19T22:31:24.876Z,10.93
2022-10-19T22:33:51.396Z,10.87
2022-10-19T22:36:18.352Z,10.87
2022-10-19T22:38:45.011Z,10.73
2022-10-19T22:42:04.323Z,10.89
2022-10-19T22:44:31.177Z,10.83
2022-10-19T22:46:58.273Z,10.85
2022-10-19T22:49:24.803Z,10.79
2022-10-19T22:51:51.276Z,10.79
2022-10-19T22:54:17.743Z,10.79
2022-10-19T22:56:44.284Z,10.81
2022-10-19T22:59:10.762Z,10.86
2022-10-19T23:01:37.710Z,10.74
2022-10-19T23:04:04.357Z,10.72
2022-10-19T23:06:31.015Z,10.68
2022-10-19T23:08:57.558Z,10.65
2022-10-19T23:11:24.156Z,10.71
2022-10-19T23:13:50.622Z,10.64
2022-10-19T23:16:17.248Z,10.64
2022-10-19T23:18:43.839Z,10.68
2022-10-19T23:21:14.963Z,10.57
2022-10-19T23:23:42.202Z,10.56
2022-10-19T23:26:14.980Z,10.60
2022-10-19T23:28:43.380Z,10.57
2022-10-19T23:31:17.930Z,10.59
2022-10-19T23:33:45.106Z,10.55
2022-10-19T23:36:17.712Z,10.50
2022-10-19T23:38:44.884Z,10.54
2022-10-19T23:41:12.579Z,10.60
2022-10-19T23:43:39.682Z,10.47
2022-10-19T23:46:06.937Z,10.52
2022-10-19T23:48:34.439Z,10.49
2022-10-19T23:51:03.748Z,10.48
2022-10-19T23:53:34.640Z,10.46
2022-10-19T23:56:09.536Z,10.49
2022-10-19T23:58:36.063Z,10.46
